sensor_id;sensor_type;location;lat;lon;timestamp;pressure;altitude;pressure_sealevel;temperature;humidity
72909;BME280;61051;62.624;17.950;2022-07-19T00:02:23;101404.84;;;12.23;76.77
72909;BME280;61051;62.624;17.950;2022-07-19T00:04:51;101408.64;;;11.93;76.47
72909;BME280;61051;62.624;17.950;2022-07-19T00:07:21;101409.31;;;11.91;77.54
72909;BME280;61051;62.624;17.950;2022-07-19T00:09:49;101410.51;;;11.56;77.50
72909;BME280;61051;62.624;17.950;2022-07-19T00:12:17;101410.06;;;11.53;77.48
72909;BME280;61051;62.624;17.950;2022-07-19T00:14:45;101412.64;;;11.13;78.19
72909;BME280;61051;62.624;17.950;2022-07-19T00:17:14;101416.69;;;11.16;79.58
72909;BME280;61051;62.624;17.950;2022-07-19T00:19:42;101420.81;;;11.21;78.91
72909;BME280;61051;62.624;17.950;2022-07-19T00:22:10;101417.94;;;10.96;79.76
72909;BME280;61051;62.624;17.950;2022-07-19T00:24:38;101415.56;;;10.95;79.96
72909;BME280;61051;62.624;17.950;2022-07-19T00:27:07;101421.82;;;11.37;79.33
72909;BME280;61051;62.624;17.950;2022-07-19T00:29:35;101423.00;;;11.37;78.38
72909;BME280;61051;62.624;17.950;2022-07-19T00:32:04;101426.15;;;11.06;78.67
72909;BME280;61051;62.624;17.950;2022-07-19T00:34:32;101433.29;;;11.18;77.39
72909;BME280;61051;62.624;17.950;2022-07-19T00:37:00;101438.66;;;11.37;77.75
72909;BME280;61051;62.624;17.950;2022-07-19T00:39:28;101432.70;;;11.26;78.51
72909;BME280;61051;62.624;17.950;2022-07-19T00:41:57;101433.13;;;11.10;79.85
72909;BME280;61051;62.624;17.950;2022-07-19T00:44:25;101430.71;;;10.97;79.53
72909;BME280;61051;62.624;17.950;2022-07-19T00:46:54;101436.25;;;11.37;78.53
72909;BME280;61051;62.624;17.950;2022-07-19T00:49:24;101440.27;;;11.65;76.93
72909;BME280;61051;62.624;17.950;2022-07-19T00:51:54;101444.85;;;11.50;77.32
72909;BME280;61051;62.624;17.950;2022-07-19T00:54:23;101449.43;;;11.24;77.98
72909;BME280;61051;62.624;17.950;2022-07-19T00:56:54;101453.00;;;11.14;78.96
72909;BME280;61051;62.624;17.950;2022-07-19T00:59:27;101455.14;;;11.01;78.19
72909;BME280;61051;62.624;17.950;2022-07-19T01:01:55;101454.01;;;11.22;77.79
72909;BME280;61051;62.624;17.950;2022-07-19T01:04:23;101457.51;;;11.19;77.05
72909;BME280;61051;62.624;17.950;2022-07-19T01:06:54;101460.71;;;11.19;76.29
72909;BME280;61051;62.624;17.950;2022-07-19T01:09:23;101460.97;;;11.08;76.80
72909;BME280;61051;62.624;17.950;2022-07-19T01:11:54;101458.66;;;11.12;77.15
72909;BME280;61051;62.624;17.950;2022-07-19T01:14:23;101465.41;;;10.99;76.26
72909;BME280;61051;62.624;17.950;2022-07-19T01:16:52;101468.03;;;10.91;76.73
72909;BME280;61051;62.624;17.950;2022-07-19T01:19:21;101470.87;;;11.06;76.98
72909;BME280;61051;62.624;17.950;2022-07-19T01:21:50;101474.18;;;10.93;76.75
72909;BME280;61051;62.624;17.950;2022-07-19T01:24:18;101476.47;;;11.05;75.89
72909;BME280;61051;62.624;17.950;2022-07-19T01:26:46;101477.84;;;11.03;76.37
72909;BME280;61051;62.624;17.950;2022-07-19T01:29:15;101479.86;;;10.87;75.97
72909;BME280;61051;62.624;17.950;2022-07-19T01:31:44;101472.52;;;10.81;76.88
72909;BME280;61051;62.624;17.950;2022-07-19T01:34:13;101475.04;;;10.79;75.74
72909;BME280;61051;62.624;17.950;2022-07-19T01:36:41;101474.66;;;10.67;76.21
72909;BME280;61051;62.624;17.950;2022-07-19T01:39:10;101477.46;;;10.65;77.52
72909;BME280;61051;62.624;17.950;2022-07-19T01:41:38;101481.63;;;10.59;77.23
72909;BME280;61051;62.624;17.950;2022-07-19T01:44:06;101480.79;;;10.82;76.03
72909;BME280;61051;62.624;17.950;2022-07-19T01:46:34;101481.07;;;11.03;75.31
72909;BME280;61051;62.624;17.950;2022-07-19T01:49:03;101481.55;;;11.08;75.28
72909;BME280;61051;62.624;17.950;2022-07-19T01:51:32;101487.43;;;11.18;75.00
72909;BME280;61051;62.624;17.950;2022-07-19T01:54:00;101492.26;;;11.17;75.75
72909;BME280;61051;62.624;17.950;2022-07-19T01:56:28;101494.09;;;11.10;75.43
72909;BME280;61051;62.624;17.950;2022-07-19T01:58:56;101495.93;;;11.11;75.56
72909;BME280;61051;62.624;17.950;2022-07-19T02:01:25;101493.66;;;11.13;75.41
72909;BME280;61051;62.624;17.950;2022-07-19T02:03:54;101497.90;;;11.29;74.64
72909;BME280;61051;62.624;17.950;2022-07-19T02:06:23;101497.24;;;11.21;74.67
72909;BME280;61051;62.624;17.950;2022-07-19T02:08:52;101496.67;;;11.28;74.33
72909;BME280;61051;62.624;17.950;2022-07-19T02:11:21;101494.81;;;11.16;74.80
72909;BME280;61051;62.624;17.950;2022-07-19T02:13:49;101498.07;;;11.17;74.11
72909;BME280;61051;62.624;17.950;2022-07-19T02:16:18;101496.57;;;11.16;74.43
72909;BME280;61051;62.624;17.950;2022-07-19T02:18:46;101501.25;;;11.10;74.35
72909;BME280;61051;62.624;17.950;2022-07-19T02:21:14;101504.79;;;11.03;74.47
72909;BME280;61051;62.624;17.950;2022-07-19T02:23:42;101505.36;;;11.11;74.37
72909;BME280;61051;62.624;17.950;2022-07-19T02:26:12;101508.06;;;11.16;74.38
72909;BME280;61051;62.624;17.950;2022-07-19T02:28:40;101505.03;;;11.12;73.96
72909;BME280;61051;62.624;17.950;2022-07-19T02:31:08;101508.27;;;11.26;73.86
72909;BME280;61051;62.624;17.950;2022-07-19T02:33:37;101507.13;;;11.24;73.53
72909;BME280;61051;62.624;17.950;2022-07-19T02:36:05;101510.18;;;11.13;73.63
72909;BME280;61051;62.624;17.950;2022-07-19T02:38:33;101511.70;;;11.22;73.40
72909;BME280;61051;62.624;17.950;2022-07-19T02:41:01;101513.44;;;11.21;73.75
72909;BME280;61051;62.624;17.950;2022-07-19T02:43:30;101511.73;;;11.10;73.57
72909;BME280;61051;62.624;17.950;2022-07-19T02:45:58;101512.16;;;10.94;74.75
72909;BME280;61051;62.624;17.950;2022-07-19T02:48:26;101518.13;;;10.70;74.74
72909;BME280;61051;62.624;17.950;2022-07-19T02:50:54;101520.32;;;10.89;74.92
72909;BME280;61051;62.624;17.950;2022-07-19T02:53:23;101521.39;;;10.87;75.21
72909;BME280;61051;62.624;17.950;2022-07-19T02:55:52;101523.14;;;10.94;74.89
72909;BME280;61051;62.624;17.950;2022-07-19T02:58:21;101522.92;;;11.06;73.17
72909;BME280;61051;62.624;17.950;2022-07-19T03:00:49;101518.48;;;11.24;72.56
72909;BME280;61051;62.624;17.950;2022-07-19T03:03:17;101520.51;;;11.61;69.96
72909;BME280;61051;62.624;17.950;2022-07-19T03:05:46;101516.58;;;11.59;70.09
72909;BME280;61051;62.624;17.950;2022-07-19T03:08:16;101521.38;;;11.75;69.77
72909;BME280;61051;62.624;17.950;2022-07-19T03:10:44;101519.42;;;12.08;68.85
72909;BME280;61051;62.624;17.950;2022-07-19T03:13:13;101520.66;;;12.15;68.32
72909;BME280;61051;62.624;17.950;2022-07-19T03:15:41;101518.64;;;12.27;67.21
72909;BME280;61051;62.624;17.950;2022-07-19T03:18:09;101512.78;;;12.35;67.31
72909;BME280;61051;62.624;17.950;2022-07-19T03:20:37;101503.23;;;12.36;65.98
72909;BME280;61051;62.624;17.950;2022-07-19T03:23:06;101505.81;;;12.40;67.08
72909;BME280;61051;62.624;17.950;2022-07-19T03:25:34;101522.42;;;12.19;65.38
72909;BME280;61051;62.624;17.950;2022-07-19T03:28:04;101517.09;;;12.31;66.56
72909;BME280;61051;62.624;17.950;2022-07-19T03:30:32;101519.96;;;12.30;66.26
72909;BME280;61051;62.624;17.950;2022-07-19T03:33:00;101520.77;;;12.34;66.04
72909;BME280;61051;62.624;17.950;2022-07-19T03:35:29;101524.12;;;12.36;66.20
72909;BME280;61051;62.624;17.950;2022-07-19T03:37:57;101523.64;;;12.38;66.42
72909;BME280;61051;62.624;17.950;2022-07-19T03:40:25;101527.61;;;12.50;65.99
72909;BME280;61051;62.624;17.950;2022-07-19T03:42:54;101524.80;;;12.64;65.75
72909;BME280;61051;62.624;17.950;2022-07-19T03:45:23;101526.83;;;12.70;64.75
72909;BME280;61051;62.624;17.950;2022-07-19T03:47:53;101525.62;;;12.86;64.69
72909;BME280;61051;62.624;17.950;2022-07-19T03:50:22;101528.65;;;12.96;64.75
72909;BME280;61051;62.624;17.950;2022-07-19T03:52:50;101526.38;;;13.11;64.26
72909;BME280;61051;62.624;17.950;2022-07-19T03:55:18;101528.36;;;13.14;64.88
72909;BME280;61051;62.624;17.950;2022-07-19T03:57:46;101527.92;;;13.28;64.61
72909;BME280;61051;62.624;17.950;2022-07-19T04:03:17;101534.59;;;13.63;62.03
72909;BME280;61051;62.624;17.950;2022-07-19T04:05:45;101530.97;;;13.80;62.51
72909;BME280;61051;62.624;17.950;2022-07-19T04:08:13;101525.24;;;13.88;61.47
72909;BME280;61051;62.624;17.950;2022-07-19T04:10:42;101524.46;;;13.94;60.84
72909;BME280;61051;62.624;17.950;2022-07-19T04:13:11;101523.97;;;13.92;61.98
72909;BME280;61051;62.624;17.950;2022-07-19T04:15:39;101525.64;;;13.79;61.64
72909;BME280;61051;62.624;17.950;2022-07-19T04:18:07;101523.96;;;13.80;61.14
72909;BME280;61051;62.624;17.950;2022-07-19T04:20:35;101519.83;;;13.77;61.21
72909;BME280;61051;62.624;17.950;2022-07-19T04:23:03;101521.16;;;13.83;61.20
72909;BME280;61051;62.624;17.950;2022-07-19T04:25:31;101527.97;;;13.99;61.37
72909;BME280;61051;62.624;17.950;2022-07-19T04:28:00;101524.33;;;13.95;60.04
72909;BME280;61051;62.624;17.950;2022-07-19T04:30:28;101532.25;;;13.90;60.22
72909;BME280;61051;62.624;17.950;2022-07-19T04:32:56;101530.99;;;14.01;60.04
72909;BME280;61051;62.624;17.950;2022-07-19T04:35:25;101534.82;;;14.04;60.72
72909;BME280;61051;62.624;17.950;2022-07-19T04:37:54;101536.06;;;13.96;59.61
72909;BME280;61051;62.624;17.950;2022-07-19T04:40:23;101537.19;;;14.13;59.29
72909;BME280;61051;62.624;17.950;2022-07-19T04:42:52;101536.54;;;13.97;59.57
72909;BME280;61051;62.624;17.950;2022-07-19T04:45:21;101544.88;;;14.01;59.47
72909;BME280;61051;62.624;17.950;2022-07-19T04:47:49;101548.12;;;13.95;59.98
72909;BME280;61051;62.624;17.950;2022-07-19T04:50:17;101548.67;;;14.05;59.69
72909;BME280;61051;62.624;17.950;2022-07-19T04:52:46;101551.28;;;13.93;59.69
72909;BME280;61051;62.624;17.950;2022-07-19T04:55:14;101553.00;;;13.87;59.90
72909;BME280;61051;62.624;17.950;2022-07-19T04:57:42;101560.68;;;13.95;59.78
72909;BME280;61051;62.624;17.950;2022-07-19T05:00:11;101560.16;;;13.93;59.77
72909;BME280;61051;62.624;17.950;2022-07-19T05:02:40;101560.25;;;13.93;58.14
72909;BME280;61051;62.624;17.950;2022-07-19T05:05:09;101559.79;;;13.99;58.45
72909;BME280;61051;62.624;17.950;2022-07-19T05:07:38;101552.26;;;14.01;58.65
72909;BME280;61051;62.624;17.950;2022-07-19T05:10:08;101551.13;;;14.08;59.47
72909;BME280;61051;62.624;17.950;2022-07-19T05:12:36;101550.45;;;14.02;57.47
72909;BME280;61051;62.624;17.950;2022-07-19T05:15:06;101550.27;;;14.10;58.01
72909;BME280;61051;62.624;17.950;2022-07-19T05:17:34;101553.25;;;13.92;58.99
72909;BME280;61051;62.624;17.950;2022-07-19T05:20:04;101557.33;;;14.10;58.07
72909;BME280;61051;62.624;17.950;2022-07-19T05:22:33;101556.12;;;14.12;59.39
72909;BME280;61051;62.624;17.950;2022-07-19T05:25:01;101560.08;;;14.16;58.52
72909;BME280;61051;62.624;17.950;2022-07-19T05:27:29;101564.78;;;14.28;58.05
72909;BME280;61051;62.624;17.950;2022-07-19T05:29:57;101564.76;;;14.53;57.63
72909;BME280;61051;62.624;17.950;2022-07-19T05:32:25;101560.30;;;14.48;57.13
72909;BME280;61051;62.624;17.950;2022-07-19T05:34:54;101560.95;;;14.64;57.34
72909;BME280;61051;62.624;17.950;2022-07-19T05:37:23;101558.52;;;14.53;56.81
72909;BME280;61051;62.624;17.950;2022-07-19T05:39:52;101556.10;;;14.58;56.01
72909;BME280;61051;62.624;17.950;2022-07-19T05:42:22;101559.49;;;14.52;56.04
72909;BME280;61051;62.624;17.950;2022-07-19T05:44:50;101559.00;;;14.53;56.78
72909;BME280;61051;62.624;17.950;2022-07-19T05:47:18;101555.40;;;14.70;56.74
72909;BME280;61051;62.624;17.950;2022-07-19T05:49:46;101555.91;;;14.79;55.67
72909;BME280;61051;62.624;17.950;2022-07-19T05:52:14;101560.69;;;14.76;55.92
72909;BME280;61051;62.624;17.950;2022-07-19T05:54:42;101550.91;;;14.80;54.92
72909;BME280;61051;62.624;17.950;2022-07-19T05:57:11;101557.60;;;14.77;55.51
72909;BME280;61051;62.624;17.950;2022-07-19T05:59:39;101559.44;;;14.93;54.94
72909;BME280;61051;62.624;17.950;2022-07-19T06:02:07;101557.87;;;14.99;54.31
72909;BME280;61051;62.624;17.950;2022-07-19T06:04:35;101557.26;;;15.01;54.33
72909;BME280;61051;62.624;17.950;2022-07-19T06:07:03;101553.45;;;14.90;53.33
72909;BME280;61051;62.624;17.950;2022-07-19T06:09:32;101552.04;;;14.95;54.58
72909;BME280;61051;62.624;17.950;2022-07-19T06:12:00;101555.70;;;15.19;54.50
72909;BME280;61051;62.624;17.950;2022-07-19T06:14:28;101552.17;;;15.11;54.55
72909;BME280;61051;62.624;17.950;2022-07-19T06:16:57;101546.23;;;15.34;52.87
72909;BME280;61051;62.624;17.950;2022-07-19T06:19:25;101543.74;;;15.40;52.95
72909;BME280;61051;62.624;17.950;2022-07-19T06:21:54;101543.60;;;15.56;52.49
72909;BME280;61051;62.624;17.950;2022-07-19T06:24:23;101546.34;;;15.63;54.04
72909;BME280;61051;62.624;17.950;2022-07-19T06:26:52;101543.72;;;15.64;50.09
72909;BME280;61051;62.624;17.950;2022-07-19T06:29:21;101544.64;;;15.54;51.30
72909;BME280;61051;62.624;17.950;2022-07-19T06:31:49;101551.43;;;15.77;51.17
72909;BME280;61051;62.624;17.950;2022-07-19T06:34:19;101554.88;;;15.78;49.72
72909;BME280;61051;62.624;17.950;2022-07-19T06:36:47;101553.95;;;15.71;49.90
72909;BME280;61051;62.624;17.950;2022-07-19T06:39:15;101553.94;;;15.84;49.36
72909;BME280;61051;62.624;17.950;2022-07-19T06:41:44;101557.61;;;15.80;48.97
72909;BME280;61051;62.624;17.950;2022-07-19T06:44:12;101555.62;;;15.71;50.99
72909;BME280;61051;62.624;17.950;2022-07-19T06:46:40;101557.63;;;15.79;50.11
72909;BME280;61051;62.624;17.950;2022-07-19T06:49:08;101561.61;;;15.85;50.87
72909;BME280;61051;62.624;17.950;2022-07-19T06:51:36;101563.21;;;15.93;49.99
72909;BME280;61051;62.624;17.950;2022-07-19T06:54:04;101556.12;;;16.16;48.59
72909;BME280;61051;62.624;17.950;2022-07-19T06:56:33;101553.19;;;16.12;49.47
72909;BME280;61051;62.624;17.950;2022-07-19T06:59:01;101557.79;;;16.31;49.45
72909;BME280;61051;62.624;17.950;2022-07-19T07:01:29;101561.95;;;16.43;48.14
72909;BME280;61051;62.624;17.950;2022-07-19T07:03:57;101553.93;;;16.45;47.14
72909;BME280;61051;62.624;17.950;2022-07-19T07:06:25;101555.24;;;16.58;47.29
72909;BME280;61051;62.624;17.950;2022-07-19T07:08:54;101549.12;;;16.55;47.17
72909;BME280;61051;62.624;17.950;2022-07-19T07:11:23;101559.15;;;16.55;46.37
72909;BME280;61051;62.624;17.950;2022-07-19T07:13:51;101554.92;;;16.44;46.30
72909;BME280;61051;62.624;17.950;2022-07-19T07:16:21;101551.30;;;16.57;47.15
72909;BME280;61051;62.624;17.950;2022-07-19T07:18:51;101552.53;;;16.80;46.53
72909;BME280;61051;62.624;17.950;2022-07-19T07:21:19;101548.33;;;16.76;46.33
72909;BME280;61051;62.624;17.950;2022-07-19T07:23:47;101548.79;;;16.88;47.25
72909;BME280;61051;62.624;17.950;2022-07-19T07:26:15;101556.09;;;17.14;46.96
72909;BME280;61051;62.624;17.950;2022-07-19T07:28:43;101549.88;;;17.29;45.60
72909;BME280;61051;62.624;17.950;2022-07-19T07:31:11;101549.91;;;17.30;47.14
72909;BME280;61051;62.624;17.950;2022-07-19T07:33:39;101539.72;;;17.55;45.86
72909;BME280;61051;62.624;17.950;2022-07-19T07:36:08;101556.30;;;17.44;45.94
72909;BME280;61051;62.624;17.950;2022-07-19T07:38:36;101558.15;;;17.22;45.57
72909;BME280;61051;62.624;17.950;2022-07-19T07:41:05;101555.79;;;17.12;46.39
72909;BME280;61051;62.624;17.950;2022-07-19T07:43:35;101555.04;;;17.41;45.93
72909;BME280;61051;62.624;17.950;2022-07-19T07:46:04;101560.45;;;17.66;45.42
72909;BME280;61051;62.624;17.950;2022-07-19T07:48:32;101550.18;;;17.78;43.63
72909;BME280;61051;62.624;17.950;2022-07-19T07:51:00;101557.88;;;17.81;43.97
72909;BME280;61051;62.624;17.950;2022-07-19T07:53:28;101558.67;;;17.84;44.08
72909;BME280;61051;62.624;17.950;2022-07-19T07:55:56;101560.35;;;17.84;44.08
72909;BME280;61051;62.624;17.950;2022-07-19T07:58:24;101555.04;;;18.18;44.26
72909;BME280;61051;62.624;17.950;2022-07-19T08:00:53;101549.17;;;18.44;41.63
72909;BME280;61051;62.624;17.950;2022-07-19T08:03:22;101551.96;;;17.87;41.90
72909;BME280;61051;62.624;17.950;2022-07-19T08:05:50;101556.75;;;17.57;41.93
72909;BME280;61051;62.624;17.950;2022-07-19T08:08:18;101556.02;;;17.59;42.86
72909;BME280;61051;62.624;17.950;2022-07-19T08:10:46;101550.22;;;18.07;42.86
72909;BME280;61051;62.624;17.950;2022-07-19T08:13:14;101544.16;;;18.29;42.16
72909;BME280;61051;62.624;17.950;2022-07-19T08:15:42;101546.78;;;18.49;41.10
72909;BME280;61051;62.624;17.950;2022-07-19T08:18:11;101544.66;;;18.52;40.94
72909;BME280;61051;62.624;17.950;2022-07-19T08:20:39;101543.26;;;18.91;40.76
72909;BME280;61051;62.624;17.950;2022-07-19T08:23:07;101550.54;;;19.23;39.79
72909;BME280;61051;62.624;17.950;2022-07-19T08:25:35;101544.85;;;19.10;38.89
72909;BME280;61051;62.624;17.950;2022-07-19T08:28:03;101546.66;;;18.88;40.16
72909;BME280;61051;62.624;17.950;2022-07-19T08:30:33;101544.57;;;19.15;40.06
72909;BME280;61051;62.624;17.950;2022-07-19T08:33:01;101545.54;;;19.68;38.32
72909;BME280;61051;62.624;17.950;2022-07-19T08:35:29;101541.38;;;19.79;37.75
72909;BME280;61051;62.624;17.950;2022-07-19T08:37:57;101540.36;;;20.02;38.40
72909;BME280;61051;62.624;17.950;2022-07-19T08:40:25;101529.85;;;20.50;37.48
72909;BME280;61051;62.624;17.950;2022-07-19T08:42:56;101535.63;;;20.62;36.10
72909;BME280;61051;62.624;17.950;2022-07-19T08:45:25;101539.74;;;19.57;37.16
72909;BME280;61051;62.624;17.950;2022-07-19T08:47:55;101541.84;;;19.53;38.15
72909;BME280;61051;62.624;17.950;2022-07-19T08:50:25;101538.38;;;20.05;37.78
72909;BME280;61051;62.624;17.950;2022-07-19T08:52:55;101533.64;;;20.03;35.18
72909;BME280;61051;62.624;17.950;2022-07-19T08:55:25;101542.13;;;20.13;36.67
72909;BME280;61051;62.624;17.950;2022-07-19T08:57:55;101540.97;;;20.49;36.30
72909;BME280;61051;62.624;17.950;2022-07-19T09:00:25;101546.01;;;20.62;35.85
72909;BME280;61051;62.624;17.950;2022-07-19T09:02:56;101542.36;;;20.35;35.56
72909;BME280;61051;62.624;17.950;2022-07-19T09:05:26;101547.00;;;20.27;36.37
72909;BME280;61051;62.624;17.950;2022-07-19T09:08:02;101548.43;;;20.62;36.89
72909;BME280;61051;62.624;17.950;2022-07-19T09:10:33;101561.31;;;19.91;36.41
72909;BME280;61051;62.624;17.950;2022-07-19T09:13:05;101556.68;;;19.42;36.85
72909;BME280;61051;62.624;17.950;2022-07-19T09:15:40;101559.93;;;19.33;38.78
72909;BME280;61051;62.624;17.950;2022-07-19T09:18:15;101555.02;;;19.24;39.15
72909;BME280;61051;62.624;17.950;2022-07-19T09:20:45;101546.33;;;19.46;38.81
72909;BME280;61051;62.624;17.950;2022-07-19T09:23:14;101549.75;;;18.95;40.09
72909;BME280;61051;62.624;17.950;2022-07-19T09:25:45;101551.94;;;18.96;39.03
72909;BME280;61051;62.624;17.950;2022-07-19T09:28:13;101558.78;;;19.88;37.24
72909;BME280;61051;62.624;17.950;2022-07-19T09:30:43;101553.48;;;20.67;35.94
72909;BME280;61051;62.624;17.950;2022-07-19T09:33:14;101555.39;;;20.83;35.29
72909;BME280;61051;62.624;17.950;2022-07-19T09:35:45;101552.14;;;21.07;34.89
72909;BME280;61051;62.624;17.950;2022-07-19T09:38:16;101564.90;;;20.70;36.26
72909;BME280;61051;62.624;17.950;2022-07-19T09:40:46;101561.60;;;21.15;35.32
72909;BME280;61051;62.624;17.950;2022-07-19T09:43:16;101563.20;;;20.63;35.32
72909;BME280;61051;62.624;17.950;2022-07-19T09:45:45;101566.80;;;20.31;33.77
72909;BME280;61051;62.624;17.950;2022-07-19T09:48:13;101566.78;;;20.75;32.33
72909;BME280;61051;62.624;17.950;2022-07-19T09:50:41;101567.83;;;21.55;32.79
72909;BME280;61051;62.624;17.950;2022-07-19T09:53:11;101560.56;;;22.17;31.45
72909;BME280;61051;62.624;17.950;2022-07-19T09:55:41;101563.12;;;22.41;30.70
72909;BME280;61051;62.624;17.950;2022-07-19T09:58:11;101560.24;;;23.35;30.55
72909;BME280;61051;62.624;17.950;2022-07-19T10:03:16;101572.28;;;22.04;33.44
72909;BME280;61051;62.624;17.950;2022-07-19T10:05:45;101576.19;;;21.10;33.37
72909;BME280;61051;62.624;17.950;2022-07-19T10:08:13;101573.58;;;21.19;34.76
72909;BME280;61051;62.624;17.950;2022-07-19T10:10:41;101562.88;;;22.02;31.99
72909;BME280;61051;62.624;17.950;2022-07-19T10:13:09;101561.98;;;23.02;30.49
72909;BME280;61051;62.624;17.950;2022-07-19T10:15:41;101567.05;;;22.15;31.20
72909;BME280;61051;62.624;17.950;2022-07-19T10:18:16;101571.16;;;21.54;33.18
72909;BME280;61051;62.624;17.950;2022-07-19T10:20:46;101571.06;;;21.37;33.80
72909;BME280;61051;62.624;17.950;2022-07-19T10:23:15;101577.09;;;20.83;32.75
72909;BME280;61051;62.624;17.950;2022-07-19T10:25:45;101581.75;;;19.98;34.82
72909;BME280;61051;62.624;17.950;2022-07-19T10:28:33;101584.75;;;19.18;36.69
72909;BME280;61051;62.624;17.950;2022-07-19T10:31:25;101584.74;;;19.31;37.17
72909;BME280;61051;62.624;17.950;2022-07-19T10:33:59;101594.74;;;19.20;38.77
72909;BME280;61051;62.624;17.950;2022-07-19T10:36:34;101592.42;;;19.48;38.36
72909;BME280;61051;62.624;17.950;2022-07-19T10:39:36;101593.14;;;20.22;36.75
72909;BME280;61051;62.624;17.950;2022-07-19T10:42:07;101595.19;;;21.55;34.74
72909;BME280;61051;62.624;17.950;2022-07-19T10:45:13;101596.01;;;21.03;34.61
72909;BME280;61051;62.624;17.950;2022-07-19T10:48:15;101606.58;;;19.70;37.74
72909;BME280;61051;62.624;17.950;2022-07-19T10:50:46;101614.40;;;19.33;38.06
72909;BME280;61051;62.624;17.950;2022-07-19T10:56:35;101616.76;;;18.66;38.03
72909;BME280;61051;62.624;17.950;2022-07-19T10:59:05;101612.16;;;18.77;39.17
72909;BME280;61051;62.624;17.950;2022-07-19T11:01:34;101609.29;;;19.26;37.55
72909;BME280;61051;62.624;17.950;2022-07-19T11:04:35;101611.88;;;19.85;36.90
72909;BME280;61051;62.624;17.950;2022-07-19T11:07:21;101603.75;;;21.23;34.76
72909;BME280;61051;62.624;17.950;2022-07-19T11:09:53;101609.44;;;22.00;33.40
72909;BME280;61051;62.624;17.950;2022-07-19T11:12:24;101600.75;;;22.52;31.44
72909;BME280;61051;62.624;17.950;2022-07-19T11:14:53;101600.57;;;22.74;28.64
72909;BME280;61051;62.624;17.950;2022-07-19T11:17:23;101602.85;;;21.52;31.19
72909;BME280;61051;62.624;17.950;2022-07-19T11:20:02;101605.62;;;21.30;32.14
72909;BME280;61051;62.624;17.950;2022-07-19T11:22:34;101609.15;;;21.74;30.61
72909;BME280;61051;62.624;17.950;2022-07-19T11:25:04;101602.57;;;21.55;31.37
72909;BME280;61051;62.624;17.950;2022-07-19T11:27:33;101601.14;;;21.54;31.90
72909;BME280;61051;62.624;17.950;2022-07-19T11:30:05;101606.91;;;22.08;32.71
72909;BME280;61051;62.624;17.950;2022-07-19T11:32:34;101612.76;;;21.52;32.12
72909;BME280;61051;62.624;17.950;2022-07-19T11:35:05;101610.31;;;20.91;33.68
72909;BME280;61051;62.624;17.950;2022-07-19T11:37:35;101615.37;;;20.03;36.23
72909;BME280;61051;62.624;17.950;2022-07-19T11:40:06;101615.89;;;19.51;35.89
72909;BME280;61051;62.624;17.950;2022-07-19T11:42:37;101617.83;;;19.18;36.88
72909;BME280;61051;62.624;17.950;2022-07-19T11:45:10;101621.78;;;19.07;37.13
72909;BME280;61051;62.624;17.950;2022-07-19T11:47:42;101618.88;;;19.08;36.59
72909;BME280;61051;62.624;17.950;2022-07-19T11:50:13;101616.98;;;19.12;35.91
72909;BME280;61051;62.624;17.950;2022-07-19T11:52:46;101618.79;;;19.50;35.47
72909;BME280;61051;62.624;17.950;2022-07-19T11:55:17;101617.35;;;22.73;31.59
72909;BME280;61051;62.624;17.950;2022-07-19T11:57:46;101615.22;;;26.59;26.05
72909;BME280;61051;62.624;17.950;2022-07-19T12:00:17;101609.49;;;28.73;22.49
72909;BME280;61051;62.624;17.950;2022-07-19T12:02:52;101601.40;;;28.70;21.77
72909;BME280;61051;62.624;17.950;2022-07-19T12:05:20;101606.76;;;25.50;25.57
72909;BME280;61051;62.624;17.950;2022-07-19T12:07:50;101604.07;;;24.26;27.66
72909;BME280;61051;62.624;17.950;2022-07-19T12:10:39;101609.44;;;23.60;29.03
72909;BME280;61051;62.624;17.950;2022-07-19T12:13:09;101609.53;;;23.21;28.80
72909;BME280;61051;62.624;17.950;2022-07-19T12:15:50;101619.74;;;23.40;28.78
72909;BME280;61051;62.624;17.950;2022-07-19T12:18:22;101619.62;;;23.92;28.37
72909;BME280;61051;62.624;17.950;2022-07-19T12:21:55;101621.04;;;24.08;27.90
72909;BME280;61051;62.624;17.950;2022-07-19T12:24:24;101630.75;;;23.67;28.67
72909;BME280;61051;62.624;17.950;2022-07-19T12:26:56;101625.06;;;25.45;25.76
72909;BME280;61051;62.624;17.950;2022-07-19T12:29:27;101627.57;;;26.60;25.57
72909;BME280;61051;62.624;17.950;2022-07-19T12:31:59;101621.54;;;27.47;24.22
72909;BME280;61051;62.624;17.950;2022-07-19T12:34:28;101619.51;;;29.33;21.77
72909;BME280;61051;62.624;17.950;2022-07-19T12:36:57;101612.74;;;29.81;21.07
72909;BME280;61051;62.624;17.950;2022-07-19T12:39:27;101616.82;;;30.43;20.49
72909;BME280;61051;62.624;17.950;2022-07-19T12:42:00;101613.85;;;31.06;19.00
72909;BME280;61051;62.624;17.950;2022-07-19T12:44:30;101616.49;;;30.01;20.08
72909;BME280;61051;62.624;17.950;2022-07-19T12:47:00;101626.68;;;26.59;22.87
72909;BME280;61051;62.624;17.950;2022-07-19T12:49:47;101632.19;;;24.26;26.78
72909;BME280;61051;62.624;17.950;2022-07-19T12:52:16;101628.38;;;22.75;30.06
72909;BME280;61051;62.624;17.950;2022-07-19T12:54:44;101629.32;;;22.65;30.42
72909;BME280;61051;62.624;17.950;2022-07-19T12:57:12;101633.02;;;22.14;30.89
72909;BME280;61051;62.624;17.950;2022-07-19T12:59:40;101641.85;;;21.23;32.86
72909;BME280;61051;62.624;17.950;2022-07-19T13:02:11;101646.98;;;21.17;33.10
72909;BME280;61051;62.624;17.950;2022-07-19T13:04:42;101647.17;;;21.27;32.18